sensor_id;sensor_type;location;lat;lon;timestamp;P1;durP1;ratioP1;P2;durP2;ratioP2
35602;SDS011;21725;50.836;4.368;2022-12-07T00:01:11;16.67;;;11.77;;
35602;SDS011;21725;50.836;4.368;2022-12-07T00:03:51;13.88;;;10.85;;
35602;SDS011;21725;50.836;4.368;2022-12-07T00:06:18;16.67;;;11.40;;
35602;SDS011;21725;50.836;4.368;2022-12-07T00:08:45;23.83;;;13.52;;
35602;SDS011;21725;50.836;4.368;2022-12-07T00:11:18;17.27;;;12.20;;
35602;SDS011;21725;50.836;4.368;2022-12-07T00:13:45;18.48;;;13.02;;
35602;SDS011;21725;50.836;4.368;2022-12-07T00:16:15;21.23;;;12.75;;
35602;SDS011;21725;50.836;4.368;2022-12-07T00:18:42;21.02;;;14.88;;
35602;SDS011;21725;50.836;4.368;2022-12-07T00:21:12;25.17;;;14.00;;
35602;SDS011;21725;50.836;4.368;2022-12-07T00:23:43;20.80;;;13.50;;
35602;SDS011;21725;50.836;4.368;2022-12-07T00:26:12;21.02;;;13.07;;
35602;SDS011;21725;50.836;4.368;2022-12-07T00:28:58;23.13;;;16.75;;
35602;SDS011;21725;50.836;4.368;2022-12-07T00:31:27;34.85;;;15.73;;
35602;SDS011;21725;50.836;4.368;2022-12-07T00:34:06;28.15;;;16.05;;
35602;SDS011;21725;50.836;4.368;2022-12-07T00:36:38;22.80;;;15.63;;
35602;SDS011;21725;50.836;4.368;2022-12-07T00:39:06;21.00;;;16.50;;
35602;SDS011;21725;50.836;4.368;2022-12-07T00:41:34;22.33;;;15.52;;
35602;SDS011;21725;50.836;4.368;2022-12-07T00:44:02;28.63;;;21.75;;
35602;SDS011;21725;50.836;4.368;2022-12-07T00:46:31;31.50;;;17.55;;
35602;SDS011;21725;50.836;4.368;2022-12-07T00:48:57;25.03;;;16.40;;
35602;SDS011;21725;50.836;4.368;2022-12-07T00:51:23;23.13;;;14.35;;
35602;SDS011;21725;50.836;4.368;2022-12-07T00:53:50;20.42;;;13.80;;
35602;SDS011;21725;50.836;4.368;2022-12-07T00:56:19;24.15;;;15.18;;
35602;SDS011;21725;50.836;4.368;2022-12-07T00:58:57;27.65;;;16.45;;
35602;SDS011;21725;50.836;4.368;2022-12-07T01:01:26;26.83;;;16.88;;
35602;SDS011;21725;50.836;4.368;2022-12-07T01:03:56;25.35;;;15.23;;
35602;SDS011;21725;50.836;4.368;2022-12-07T01:06:23;18.20;;;13.68;;
35602;SDS011;21725;50.836;4.368;2022-12-07T01:08:49;26.73;;;16.30;;
35602;SDS011;21725;50.836;4.368;2022-12-07T01:11:17;23.42;;;14.48;;
35602;SDS011;21725;50.836;4.368;2022-12-07T01:13:51;24.90;;;16.20;;
35602;SDS011;21725;50.836;4.368;2022-12-07T01:16:19;22.45;;;15.00;;
35602;SDS011;21725;50.836;4.368;2022-12-07T01:18:51;23.80;;;14.63;;
35602;SDS011;21725;50.836;4.368;2022-12-07T01:21:20;18.97;;;13.50;;
35602;SDS011;21725;50.836;4.368;2022-12-07T01:23:47;20.30;;;14.68;;
35602;SDS011;21725;50.836;4.368;2022-12-07T01:26:20;21.25;;;14.55;;
35602;SDS011;21725;50.836;4.368;2022-12-07T01:28:47;23.90;;;15.88;;
35602;SDS011;21725;50.836;4.368;2022-12-07T01:31:21;18.92;;;13.38;;
35602;SDS011;21725;50.836;4.368;2022-12-07T01:33:50;23.08;;;15.82;;
35602;SDS011;21725;50.836;4.368;2022-12-07T01:36:27;18.00;;;14.00;;
35602;SDS011;21725;50.836;4.368;2022-12-07T01:38:58;19.95;;;14.95;;
35602;SDS011;21725;50.836;4.368;2022-12-07T01:41:27;22.08;;;15.82;;
35602;SDS011;21725;50.836;4.368;2022-12-07T01:44:11;19.48;;;13.77;;
35602;SDS011;21725;50.836;4.368;2022-12-07T01:46:52;27.10;;;16.23;;
35602;SDS011;21725;50.836;4.368;2022-12-07T01:52:09;22.83;;;15.43;;
35602;SDS011;21725;50.836;4.368;2022-12-07T01:54:42;21.10;;;14.15;;
35602;SDS011;21725;50.836;4.368;2022-12-07T01:57:21;14.23;;;11.20;;
35602;SDS011;21725;50.836;4.368;2022-12-07T01:59:48;23.70;;;14.38;;
35602;SDS011;21725;50.836;4.368;2022-12-07T02:02:34;22.23;;;15.13;;
35602;SDS011;21725;50.836;4.368;2022-12-07T02:05:04;20.90;;;13.95;;
35602;SDS011;21725;50.836;4.368;2022-12-07T02:07:31;19.45;;;14.20;;
35602;SDS011;21725;50.836;4.368;2022-12-07T02:10:15;25.30;;;15.00;;
35602;SDS011;21725;50.836;4.368;2022-12-07T02:12:45;19.48;;;13.23;;
35602;SDS011;21725;50.836;4.368;2022-12-07T02:15:14;20.08;;;13.70;;
35602;SDS011;21725;50.836;4.368;2022-12-07T02:17:45;19.77;;;13.93;;
35602;SDS011;21725;50.836;4.368;2022-12-07T02:31:29;18.60;;;11.80;;
35602;SDS011;21725;50.836;4.368;2022-12-07T02:34:08;19.48;;;13.15;;
35602;SDS011;21725;50.836;4.368;2022-12-07T02:36:43;15.15;;;11.48;;
35602;SDS011;21725;50.836;4.368;2022-12-07T02:42:14;15.60;;;10.50;;
35602;SDS011;21725;50.836;4.368;2022-12-07T02:44:48;16.42;;;12.20;;
35602;SDS011;21725;50.836;4.368;2022-12-07T02:47:16;18.42;;;12.05;;
35602;SDS011;21725;50.836;4.368;2022-12-07T02:49:44;24.52;;;13.15;;
35602;SDS011;21725;50.836;4.368;2022-12-07T02:52:11;18.90;;;10.15;;
35602;SDS011;21725;50.836;4.368;2022-12-07T02:54:36;16.73;;;12.60;;
35602;SDS011;21725;50.836;4.368;2022-12-07T03:00:13;22.08;;;11.50;;
35602;SDS011;21725;50.836;4.368;2022-12-07T03:11:40;17.95;;;10.60;;
35602;SDS011;21725;50.836;4.368;2022-12-07T03:16:46;16.02;;;11.43;;
35602;SDS011;21725;50.836;4.368;2022-12-07T03:19:24;16.63;;;10.50;;
35602;SDS011;21725;50.836;4.368;2022-12-07T03:21:56;16.60;;;11.05;;
35602;SDS011;21725;50.836;4.368;2022-12-07T03:24:26;16.65;;;10.52;;
35602;SDS011;21725;50.836;4.368;2022-12-07T03:27:00;16.55;;;10.80;;
35602;SDS011;21725;50.836;4.368;2022-12-07T03:29:34;16.65;;;10.35;;
35602;SDS011;21725;50.836;4.368;2022-12-07T03:32:08;17.23;;;11.05;;
35602;SDS011;21725;50.836;4.368;2022-12-07T03:34:45;16.90;;;10.82;;
35602;SDS011;21725;50.836;4.368;2022-12-07T03:37:16;21.95;;;11.35;;
35602;SDS011;21725;50.836;4.368;2022-12-07T03:39:59;18.13;;;11.30;;
35602;SDS011;21725;50.836;4.368;2022-12-07T03:42:31;14.07;;;10.77;;
35602;SDS011;21725;50.836;4.368;2022-12-07T03:45:01;16.48;;;10.82;;
35602;SDS011;21725;50.836;4.368;2022-12-07T03:47:32;17.70;;;11.07;;
35602;SDS011;21725;50.836;4.368;2022-12-07T03:53:11;15.82;;;9.82;;
35602;SDS011;21725;50.836;4.368;2022-12-07T03:55:42;16.97;;;10.03;;
35602;SDS011;21725;50.836;4.368;2022-12-07T03:58:13;14.57;;;9.93;;
35602;SDS011;21725;50.836;4.368;2022-12-07T04:00:50;12.40;;;7.88;;
35602;SDS011;21725;50.836;4.368;2022-12-07T04:03:16;14.82;;;9.38;;
35602;SDS011;21725;50.836;4.368;2022-12-07T04:05:42;15.77;;;10.27;;
35602;SDS011;21725;50.836;4.368;2022-12-07T04:08:09;31.73;;;10.55;;
35602;SDS011;21725;50.836;4.368;2022-12-07T04:10:35;17.80;;;10.00;;
35602;SDS011;21725;50.836;4.368;2022-12-07T04:13:00;12.75;;;8.85;;
35602;SDS011;21725;50.836;4.368;2022-12-07T04:15:29;17.50;;;10.10;;
35602;SDS011;21725;50.836;4.368;2022-12-07T04:17:55;17.63;;;10.88;;
35602;SDS011;21725;50.836;4.368;2022-12-07T04:20:23;18.17;;;10.50;;
35602;SDS011;21725;50.836;4.368;2022-12-07T04:22:49;17.20;;;9.27;;
35602;SDS011;21725;50.836;4.368;2022-12-07T04:25:15;24.33;;;10.95;;
35602;SDS011;21725;50.836;4.368;2022-12-07T04:27:44;17.70;;;9.77;;
35602;SDS011;21725;50.836;4.368;2022-12-07T04:30:09;17.33;;;9.40;;
35602;SDS011;21725;50.836;4.368;2022-12-07T04:32:35;19.85;;;10.82;;
35602;SDS011;21725;50.836;4.368;2022-12-07T04:35:05;17.23;;;9.07;;
35602;SDS011;21725;50.836;4.368;2022-12-07T04:37:31;19.08;;;11.80;;
35602;SDS011;21725;50.836;4.368;2022-12-07T04:39:56;23.27;;;13.20;;
35602;SDS011;21725;50.836;4.368;2022-12-07T04:42:24;15.93;;;11.95;;
35602;SDS011;21725;50.836;4.368;2022-12-07T04:44:50;18.92;;;13.80;;
35602;SDS011;21725;50.836;4.368;2022-12-07T04:47:16;23.00;;;13.75;;
35602;SDS011;21725;50.836;4.368;2022-12-07T04:49:42;20.10;;;14.75;;
35602;SDS011;21725;50.836;4.368;2022-12-07T04:52:07;20.05;;;14.73;;
35602;SDS011;21725;50.836;4.368;2022-12-07T04:54:40;19.15;;;14.77;;
35602;SDS011;21725;50.836;4.368;2022-12-07T04:57:06;19.35;;;12.93;;
35602;SDS011;21725;50.836;4.368;2022-12-07T04:59:42;24.48;;;12.93;;
35602;SDS011;21725;50.836;4.368;2022-12-07T05:02:08;17.88;;;12.95;;
35602;SDS011;21725;50.836;4.368;2022-12-07T05:26:07;17.23;;;10.88;;
35602;SDS011;21725;50.836;4.368;2022-12-07T05:28:35;16.70;;;11.40;;
35602;SDS011;21725;50.836;4.368;2022-12-07T05:31:01;22.95;;;13.60;;
35602;SDS011;21725;50.836;4.368;2022-12-07T05:33:31;16.67;;;11.95;;
35602;SDS011;21725;50.836;4.368;2022-12-07T05:35:59;19.00;;;12.18;;
35602;SDS011;21725;50.836;4.368;2022-12-07T05:38:30;21.25;;;13.00;;
35602;SDS011;21725;50.836;4.368;2022-12-07T05:40:59;16.35;;;11.48;;
35602;SDS011;21725;50.836;4.368;2022-12-07T05:43:29;20.63;;;12.18;;
35602;SDS011;21725;50.836;4.368;2022-12-07T05:45:56;17.60;;;12.40;;
35602;SDS011;21725;50.836;4.368;2022-12-07T05:48:25;21.13;;;12.07;;
35602;SDS011;21725;50.836;4.368;2022-12-07T05:50:51;18.83;;;11.68;;
35602;SDS011;21725;50.836;4.368;2022-12-07T05:53:18;17.92;;;11.20;;
35602;SDS011;21725;50.836;4.368;2022-12-07T05:55:49;17.08;;;11.60;;
35602;SDS011;21725;50.836;4.368;2022-12-07T05:58:17;18.98;;;11.38;;
35602;SDS011;21725;50.836;4.368;2022-12-07T06:01:03;15.65;;;11.50;;
35602;SDS011;21725;50.836;4.368;2022-12-07T06:03:31;20.38;;;12.20;;
35602;SDS011;21725;50.836;4.368;2022-12-07T06:05:59;20.88;;;13.35;;
35602;SDS011;21725;50.836;4.368;2022-12-07T06:08:25;37.80;;;18.58;;
35602;SDS011;21725;50.836;4.368;2022-12-07T06:10:51;33.58;;;18.20;;
35602;SDS011;21725;50.836;4.368;2022-12-07T06:13:36;20.63;;;14.45;;
35602;SDS011;21725;50.836;4.368;2022-12-07T06:16:05;21.73;;;15.02;;
35602;SDS011;21725;50.836;4.368;2022-12-07T06:18:32;25.35;;;14.82;;
35602;SDS011;21725;50.836;4.368;2022-12-07T06:20:59;20.92;;;13.13;;
35602;SDS011;21725;50.836;4.368;2022-12-07T06:23:24;17.70;;;11.75;;
35602;SDS011;21725;50.836;4.368;2022-12-07T06:25:50;22.25;;;12.18;;
35602;SDS011;21725;50.836;4.368;2022-12-07T06:28:16;22.42;;;11.18;;
35602;SDS011;21725;50.836;4.368;2022-12-07T06:30:41;18.58;;;12.23;;
35602;SDS011;21725;50.836;4.368;2022-12-07T06:33:07;16.15;;;10.93;;
35602;SDS011;21725;50.836;4.368;2022-12-07T06:35:33;20.85;;;10.52;;
35602;SDS011;21725;50.836;4.368;2022-12-07T06:37:59;17.88;;;10.25;;
35602;SDS011;21725;50.836;4.368;2022-12-07T06:40:25;24.52;;;11.02;;
35602;SDS011;21725;50.836;4.368;2022-12-07T06:42:50;16.25;;;9.93;;
35602;SDS011;21725;50.836;4.368;2022-12-07T06:45:16;14.45;;;9.52;;
35602;SDS011;21725;50.836;4.368;2022-12-07T06:47:47;20.10;;;10.63;;
35602;SDS011;21725;50.836;4.368;2022-12-07T06:50:18;15.13;;;9.52;;
35602;SDS011;21725;50.836;4.368;2022-12-07T06:52:46;17.77;;;9.25;;
35602;SDS011;21725;50.836;4.368;2022-12-07T06:55:17;20.60;;;10.50;;
35602;SDS011;21725;50.836;4.368;2022-12-07T06:57:45;13.55;;;8.75;;
35602;SDS011;21725;50.836;4.368;2022-12-07T07:00:18;18.98;;;9.50;;
35602;SDS011;21725;50.836;4.368;2022-12-07T07:02:55;16.08;;;8.32;;
35602;SDS011;21725;50.836;4.368;2022-12-07T07:05:20;18.00;;;11.00;;
35602;SDS011;21725;50.836;4.368;2022-12-07T07:07:55;12.40;;;7.47;;
35602;SDS011;21725;50.836;4.368;2022-12-07T07:10:31;13.68;;;8.38;;
35602;SDS011;21725;50.836;4.368;2022-12-07T07:12:57;13.02;;;8.10;;
35602;SDS011;21725;50.836;4.368;2022-12-07T07:15:25;15.98;;;8.10;;
35602;SDS011;21725;50.836;4.368;2022-12-07T07:18:02;15.40;;;7.90;;
35602;SDS011;21725;50.836;4.368;2022-12-07T07:20:30;16.25;;;7.38;;
35602;SDS011;21725;50.836;4.368;2022-12-07T07:22:58;18.88;;;10.13;;
35602;SDS011;21725;50.836;4.368;2022-12-07T07:25:24;15.60;;;8.73;;
35602;SDS011;21725;50.836;4.368;2022-12-07T07:27:55;11.10;;;7.25;;
35602;SDS011;21725;50.836;4.368;2022-12-07T07:30:23;14.35;;;8.30;;
35602;SDS011;21725;50.836;4.368;2022-12-07T07:32:58;15.65;;;9.10;;
35602;SDS011;21725;50.836;4.368;2022-12-07T07:35:31;12.38;;;8.32;;
35602;SDS011;21725;50.836;4.368;2022-12-07T07:38:00;12.65;;;8.35;;
35602;SDS011;21725;50.836;4.368;2022-12-07T07:40:31;18.63;;;10.50;;
35602;SDS011;21725;50.836;4.368;2022-12-07T07:43:07;14.65;;;10.50;;
35602;SDS011;21725;50.836;4.368;2022-12-07T07:45:45;15.75;;;10.57;;
35602;SDS011;21725;50.836;4.368;2022-12-07T07:48:14;17.73;;;9.88;;
35602;SDS011;21725;50.836;4.368;2022-12-07T07:50:50;18.20;;;9.63;;
35602;SDS011;21725;50.836;4.368;2022-12-07T07:53:15;16.05;;;10.13;;
35602;SDS011;21725;50.836;4.368;2022-12-07T07:55:52;18.10;;;9.25;;
35602;SDS011;21725;50.836;4.368;2022-12-07T07:58:20;19.13;;;10.60;;
35602;SDS011;21725;50.836;4.368;2022-12-07T08:00:46;16.95;;;9.63;;
35602;SDS011;21725;50.836;4.368;2022-12-07T08:03:14;13.20;;;9.32;;
35602;SDS011;21725;50.836;4.368;2022-12-07T08:05:47;18.48;;;9.40;;
35602;SDS011;21725;50.836;4.368;2022-12-07T08:08:18;19.20;;;9.88;;
35602;SDS011;21725;50.836;4.368;2022-12-07T08:10:46;13.48;;;8.68;;
35602;SDS011;21725;50.836;4.368;2022-12-07T08:13:27;22.38;;;10.07;;
35602;SDS011;21725;50.836;4.368;2022-12-07T08:15:54;18.80;;;11.27;;
35602;SDS011;21725;50.836;4.368;2022-12-07T08:18:23;14.27;;;9.70;;
35602;SDS011;21725;50.836;4.368;2022-12-07T08:20:58;18.60;;;10.88;;
35602;SDS011;21725;50.836;4.368;2022-12-07T08:23:29;20.33;;;11.02;;
35602;SDS011;21725;50.836;4.368;2022-12-07T08:26:07;17.35;;;10.35;;
35602;SDS011;21725;50.836;4.368;2022-12-07T08:28:34;15.27;;;10.80;;
35602;SDS011;21725;50.836;4.368;2022-12-07T08:31:01;17.48;;;9.70;;
35602;SDS011;21725;50.836;4.368;2022-12-07T08:33:38;16.45;;;10.20;;
35602;SDS011;21725;50.836;4.368;2022-12-07T08:36:04;15.68;;;11.38;;
35602;SDS011;21725;50.836;4.368;2022-12-07T08:38:34;21.05;;;10.50;;
35602;SDS011;21725;50.836;4.368;2022-12-07T08:41:02;20.13;;;11.45;;
35602;SDS011;21725;50.836;4.368;2022-12-07T08:43:31;19.08;;;9.82;;
35602;SDS011;21725;50.836;4.368;2022-12-07T08:46:11;14.27;;;8.75;;
35602;SDS011;21725;50.836;4.368;2022-12-07T08:51:49;20.80;;;11.88;;
35602;SDS011;21725;50.836;4.368;2022-12-07T08:54:22;41.90;;;34.08;;
35602;SDS011;21725;50.836;4.368;2022-12-07T08:57:01;24.77;;;19.95;;
35602;SDS011;21725;50.836;4.368;2022-12-07T08:59:36;16.27;;;10.43;;
35602;SDS011;21725;50.836;4.368;2022-12-07T09:02:05;15.60;;;10.82;;
35602;SDS011;21725;50.836;4.368;2022-12-07T09:04:34;20.20;;;12.13;;
35602;SDS011;21725;50.836;4.368;2022-12-07T09:06:59;16.52;;;10.93;;
35602;SDS011;21725;50.836;4.368;2022-12-07T09:09:35;12.93;;;8.35;;
35602;SDS011;21725;50.836;4.368;2022-12-07T09:12:01;19.40;;;12.52;;
35602;SDS011;21725;50.836;4.368;2022-12-07T09:14:27;23.23;;;14.60;;
35602;SDS011;21725;50.836;4.368;2022-12-07T09:17:04;15.90;;;10.15;;
35602;SDS011;21725;50.836;4.368;2022-12-07T09:19:33;13.27;;;10.52;;
35602;SDS011;21725;50.836;4.368;2022-12-07T09:22:05;20.80;;;12.45;;
35602;SDS011;21725;50.836;4.368;2022-12-07T09:24:40;18.45;;;9.02;;
35602;SDS011;21725;50.836;4.368;2022-12-07T09:27:08;17.40;;;10.32;;
35602;SDS011;21725;50.836;4.368;2022-12-07T09:29:43;22.65;;;9.10;;
35602;SDS011;21725;50.836;4.368;2022-12-07T09:32:22;20.65;;;10.23;;
35602;SDS011;21725;50.836;4.368;2022-12-07T09:34:50;14.40;;;8.35;;
35602;SDS011;21725;50.836;4.368;2022-12-07T09:37:16;23.10;;;8.00;;
35602;SDS011;21725;50.836;4.368;2022-12-07T09:39:42;18.60;;;9.77;;
35602;SDS011;21725;50.836;4.368;2022-12-07T09:42:10;13.80;;;8.95;;
35602;SDS011;21725;50.836;4.368;2022-12-07T09:48:03;15.15;;;9.20;;
35602;SDS011;21725;50.836;4.368;2022-12-07T09:51:09;16.67;;;9.38;;
35602;SDS011;21725;50.836;4.368;2022-12-07T09:53:45;14.38;;;8.50;;
35602;SDS011;21725;50.836;4.368;2022-12-07T09:56:40;17.85;;;7.78;;
35602;SDS011;21725;50.836;4.368;2022-12-07T09:59:36;17.80;;;9.52;;
35602;SDS011;21725;50.836;4.368;2022-12-07T10:05:38;17.80;;;7.43;;
35602;SDS011;21725;50.836;4.368;2022-12-07T10:08:37;16.02;;;8.98;;
35602;SDS011;21725;50.836;4.368;2022-12-07T10:11:14;16.45;;;7.85;;
35602;SDS011;21725;50.836;4.368;2022-12-07T10:17:28;13.02;;;7.43;;
35602;SDS011;21725;50.836;4.368;2022-12-07T10:28:54;14.70;;;8.45;;
35602;SDS011;21725;50.836;4.368;2022-12-07T10:31:59;24.10;;;10.25;;
35602;SDS011;21725;50.836;4.368;2022-12-07T10:34:28;22.67;;;9.45;;
35602;SDS011;21725;50.836;4.368;2022-12-07T10:40:01;15.77;;;9.50;;
35602;SDS011;21725;50.836;4.368;2022-12-07T10:54:06;14.80;;;6.95;;
35602;SDS011;21725;50.836;4.368;2022-12-07T11:00:35;11.32;;;6.03;;
35602;SDS011;21725;50.836;4.368;2022-12-07T11:37:56;10.73;;;4.97;;
35602;SDS011;21725;50.836;4.368;2022-12-07T11:40:34;16.13;;;6.45;;
35602;SDS011;21725;50.836;4.368;2022-12-07T11:46:47;12.27;;;4.97;;
35602;SDS011;21725;50.836;4.368;2022-12-07T11:49:41;12.48;;;6.05;;
35602;SDS011;21725;50.836;4.368;2022-12-07T11:55:14;8.98;;;5.55;;
35602;SDS011;21725;50.836;4.368;2022-12-07T12:01:18;11.07;;;4.90;;
35602;SDS011;21725;50.836;4.368;2022-12-07T12:07:29;8.30;;;4.43;;
35602;SDS011;21725;50.836;4.368;2022-12-07T12:10:35;12.55;;;4.65;;
35602;SDS011;21725;50.836;4.368;2022-12-07T12:16:52;9.80;;;4.82;;
35602;SDS011;21725;50.836;4.368;2022-12-07T12:26:27;5.63;;;2.97;;
35602;SDS011;21725;50.836;4.368;2022-12-07T12:29:18;10.90;;;4.63;;
35602;SDS011;21725;50.836;4.368;2022-12-07T12:32:36;8.77;;;3.75;;
35602;SDS011;21725;50.836;4.368;2022-12-07T12:41:00;8.05;;;4.22;;
35602;SDS011;21725;50.836;4.368;2022-12-07T12:43:45;10.02;;;3.35;;
35602;SDS011;21725;50.836;4.368;2022-12-07T12:51:47;11.98;;;3.90;;
35602;SDS011;21725;50.836;4.368;2022-12-07T12:54:56;20.13;;;4.90;;
35602;SDS011;21725;50.836;4.368;2022-12-07T12:57:52;16.88;;;5.40;;
35602;SDS011;21725;50.836;4.368;2022-12-07T13:45:34;14.20;;;5.95;;
35602;SDS011;21725;50.836;4.368;2022-12-07T13:48:32;11.48;;;4.28;;
35602;SDS011;21725;50.836;4.368;2022-12-07T13:51:16;9.57;;;3.60;;
35602;SDS011;21725;50.836;4.368;2022-12-07T13:54:30;8.98;;;4.70;;
35602;SDS011;21725;50.836;4.368;2022-12-07T14:00:13;10.63;;;5.82;;
35602;SDS011;21725;50.836;4.368;2022-12-07T14:09:14;9.60;;;4.18;;
35602;SDS011;21725;50.836;4.368;2022-12-07T14:35:09;10.82;;;3.38;;
35602;SDS011;21725;50.836;4.368;2022-12-07T14:37:48;7.55;;;3.20;;
35602;SDS011;21725;50.836;4.368;2022-12-07T14:40:26;11.07;;;3.83;;
35602;SDS011;21725;50.836;4.368;2022-12-07T14:43:23;10.45;;;5.82;;
35602;SDS011;21725;50.836;4.368;2022-12-07T14:49:05;6.18;;;2.70;;
35602;SDS011;21725;50.836;4.368;2022-12-07T14:51:59;6.70;;;2.22;;
35602;SDS011;21725;50.836;4.368;2022-12-07T14:55:07;8.77;;;3.60;;
35602;SDS011;21725;50.836;4.368;2022-12-07T14:57:51;12.43;;;3.42;;
35602;SDS011;21725;50.836;4.368;2022-12-07T15:00:17;7.15;;;2.63;;
35602;SDS011;21725;50.836;4.368;2022-12-07T15:02:49;8.23;;;3.88;;
35602;SDS011;21725;50.836;4.368;2022-12-07T15:05:22;24.38;;;12.65;;
35602;SDS011;21725;50.836;4.368;2022-12-07T15:07:51;20.67;;;12.52;;
35602;SDS011;21725;50.836;4.368;2022-12-07T15:10:20;16.50;;;6.45;;
35602;SDS011;21725;50.836;4.368;2022-12-07T15:13:07;17.05;;;5.22;;
35602;SDS011;21725;50.836;4.368;2022-12-07T15:15:54;9.95;;;2.80;;
35602;SDS011;21725;50.836;4.368;2022-12-07T15:18:21;8.93;;;4.03;;
35602;SDS011;21725;50.836;4.368;2022-12-07T15:20:53;7.18;;;3.63;;
35602;SDS011;21725;50.836;4.368;2022-12-07T15:23:19;9.68;;;3.33;;
35602;SDS011;21725;50.836;4.368;2022-12-07T15:25:47;8.57;;;2.72;;
35602;SDS011;21725;50.836;4.368;2022-12-07T15:28:18;6.20;;;3.47;;
35602;SDS011;21725;50.836;4.368;2022-12-07T15:30:44;6.70;;;3.25;;
35602;SDS011;21725;50.836;4.368;2022-12-07T15:33:12;10.80;;;3.13;;
35602;SDS011;21725;50.836;4.368;2022-12-07T15:35:44;9.07;;;5.15;;
35602;SDS011;21725;50.836;4.368;2022-12-07T15:38:11;7.00;;;3.83;;
35602;SDS011;21725;50.836;4.368;2022-12-07T15:40:39;9.90;;;4.10;;
35602;SDS011;21725;50.836;4.368;2022-12-07T15:43:05;8.10;;;4.43;;
35602;SDS011;21725;50.836;4.368;2022-12-07T15:45:53;9.43;;;4.20;;
35602;SDS011;21725;50.836;4.368;2022-12-07T15:48:21;8.65;;;4.05;;
35602;SDS011;21725;50.836;4.368;2022-12-07T15:51:16;9.88;;;4.72;;
35602;SDS011;21725;50.836;4.368;2022-12-07T15:53:41;8.85;;;4.63;;
35602;SDS011;21725;50.836;4.368;2022-12-07T15:56:09;10.63;;;5.05;;
35602;SDS011;21725;50.836;4.368;2022-12-07T15:58:35;9.73;;;4.72;;
35602;SDS011;21725;50.836;4.368;2022-12-07T16:01:13;11.40;;;6.05;;
35602;SDS011;21725;50.836;4.368;2022-12-07T16:03:40;10.82;;;5.35;;
35602;SDS011;21725;50.836;4.368;2022-12-07T16:06:06;9.73;;;6.43;;
35602;SDS011;21725;50.836;4.368;2022-12-07T16:08:40;12.38;;;5.93;;
35602;SDS011;21725;50.836;4.368;2022-12-07T16:11:08;11.60;;;6.18;;
35602;SDS011;21725;50.836;4.368;2022-12-07T16:13:35;11.13;;;6.93;;
35602;SDS011;21725;50.836;4.368;2022-12-07T16:16:19;8.73;;;5.43;;
35602;SDS011;21725;50.836;4.368;2022-12-07T16:18:47;10.18;;;5.43;;
35602;SDS011;21725;50.836;4.368;2022-12-07T16:21:14;7.97;;;4.80;;
35602;SDS011;21725;50.836;4.368;2022-12-07T16:23:41;7.88;;;4.75;;
35602;SDS011;21725;50.836;4.368;2022-12-07T16:26:08;7.20;;;4.88;;
35602;SDS011;21725;50.836;4.368;2022-12-07T16:28:40;14.02;;;9.48;;
35602;SDS011;21725;50.836;4.368;2022-12-07T16:31:15;13.00;;;8.50;;
35602;SDS011;21725;50.836;4.368;2022-12-07T16:33:44;19.30;;;11.93;;
35602;SDS011;21725;50.836;4.368;2022-12-07T16:36:18;13.43;;;6.97;;
35602;SDS011;21725;50.836;4.368;2022-12-07T16:38:53;12.95;;;6.53;;
35602;SDS011;21725;50.836;4.368;2022-12-07T16:41:19;9.65;;;6.88;;
35602;SDS011;21725;50.836;4.368;2022-12-07T16:43:45;10.85;;;7.65;;
35602;SDS011;21725;50.836;4.368;2022-12-07T16:46:10;11.27;;;7.10;;
35602;SDS011;21725;50.836;4.368;2022-12-07T16:48:37;11.13;;;7.65;;
35602;SDS011;21725;50.836;4.368;2022-12-07T16:51:13;10.95;;;6.57;;
35602;SDS011;21725;50.836;4.368;2022-12-07T16:53:42;8.35;;;5.43;;
35602;SDS011;21725;50.836;4.368;2022-12-07T16:56:15;7.28;;;4.90;;
35602;SDS011;21725;50.836;4.368;2022-12-07T16:58:42;13.02;;;5.80;;
35602;SDS011;21725;50.836;4.368;2022-12-07T17:24:49;12.45;;;6.57;;
35602;SDS011;21725;50.836;4.368;2022-12-07T17:27:18;11.50;;;6.32;;
35602;SDS011;21725;50.836;4.368;2022-12-07T17:29:46;13.27;;;6.47;;
35602;SDS011;21725;50.836;4.368;2022-12-07T17:32:11;19.05;;;8.35;;
35602;SDS011;21725;50.836;4.368;2022-12-07T17:34:40;15.93;;;10.13;;
35602;SDS011;21725;50.836;4.368;2022-12-07T17:37:08;19.50;;;11.88;;
35602;SDS011;21725;50.836;4.368;2022-12-07T17:39:49;17.35;;;10.63;;
35602;SDS011;21725;50.836;4.368;2022-12-07T17:42:17;12.27;;;6.93;;
35602;SDS011;21725;50.836;4.368;2022-12-07T17:45:04;10.55;;;6.20;;
35602;SDS011;21725;50.836;4.368;2022-12-07T17:47:42;11.88;;;9.40;;
35602;SDS011;21725;50.836;4.368;2022-12-07T17:50:08;12.43;;;8.13;;
35602;SDS011;21725;50.836;4.368;2022-12-07T17:52:37;17.42;;;11.25;;
35602;SDS011;21725;50.836;4.368;2022-12-07T17:55:23;11.40;;;8.35;;
35602;SDS011;21725;50.836;4.368;2022-12-07T17:57:49;13.75;;;9.15;;
35602;SDS011;21725;50.836;4.368;2022-12-07T18:00:17;13.15;;;8.82;;
35602;SDS011;21725;50.836;4.368;2022-12-07T18:02:43;13.38;;;8.95;;
35602;SDS011;21725;50.836;4.368;2022-12-07T18:05:12;13.98;;;9.38;;
35602;SDS011;21725;50.836;4.368;2022-12-07T18:07:38;15.30;;;10.32;;
35602;SDS011;21725;50.836;4.368;2022-12-07T18:10:06;15.40;;;8.18;;
35602;SDS011;21725;50.836;4.368;2022-12-07T18:12:33;16.65;;;9.02;;
35602;SDS011;21725;50.836;4.368;2022-12-07T18:14:59;13.20;;;9.25;;
35602;SDS011;21725;50.836;4.368;2022-12-07T18:17:25;13.93;;;8.93;;
35602;SDS011;21725;50.836;4.368;2022-12-07T18:20:01;16.95;;;10.20;;
35602;SDS011;21725;50.836;4.368;2022-12-07T18:22:26;14.35;;;9.43;;
35602;SDS011;21725;50.836;4.368;2022-12-07T18:24:55;14.88;;;10.23;;
35602;SDS011;21725;50.836;4.368;2022-12-07T18:27:29;15.77;;;10.25;;
35602;SDS011;21725;50.836;4.368;2022-12-07T18:29:55;14.63;;;10.40;;
35602;SDS011;21725;50.836;4.368;2022-12-07T18:32:23;18.35;;;12.00;;
35602;SDS011;21725;50.836;4.368;2022-12-07T18:34:49;17.95;;;11.93;;
35602;SDS011;21725;50.836;4.368;2022-12-07T18:37:15;16.05;;;11.10;;
35602;SDS011;21725;50.836;4.368;2022-12-07T18:39:43;20.85;;;11.60;;
35602;SDS011;21725;50.836;4.368;2022-12-07T18:51:25;16.13;;;11.20;;
35602;SDS011;21725;50.836;4.368;2022-12-07T18:57:35;17.75;;;8.65;;
35602;SDS011;21725;50.836;4.368;2022-12-07T19:00:01;15.15;;;11.38;;
35602;SDS011;21725;50.836;4.368;2022-12-07T19:02:35;15.45;;;9.93;;
35602;SDS011;21725;50.836;4.368;2022-12-07T19:05:04;13.80;;;8.33;;
35602;SDS011;21725;50.836;4.368;2022-12-07T19:07:45;12.27;;;8.52;;
35602;SDS011;21725;50.836;4.368;2022-12-07T19:10:43;20.17;;;11.88;;
35602;SDS011;21725;50.836;4.368;2022-12-07T19:13:09;17.55;;;10.98;;
35602;SDS011;21725;50.836;4.368;2022-12-07T19:15:43;16.42;;;9.93;;
35602;SDS011;21725;50.836;4.368;2022-12-07T19:18:13;17.35;;;9.75;;
35602;SDS011;21725;50.836;4.368;2022-12-07T19:20:42;18.23;;;9.57;;
35602;SDS011;21725;50.836;4.368;2022-12-07T19:23:17;17.23;;;10.48;;
35602;SDS011;21725;50.836;4.368;2022-12-07T19:25:53;23.10;;;11.60;;
35602;SDS011;21725;50.836;4.368;2022-12-07T19:31:39;21.42;;;11.90;;
35602;SDS011;21725;50.836;4.368;2022-12-07T19:34:08;13.77;;;9.95;;
35602;SDS011;21725;50.836;4.368;2022-12-07T19:36:42;17.88;;;10.50;;
35602;SDS011;21725;50.836;4.368;2022-12-07T19:39:16;14.95;;;9.35;;
35602;SDS011;21725;50.836;4.368;2022-12-07T19:41:43;16.42;;;10.05;;
35602;SDS011;21725;50.836;4.368;2022-12-07T19:44:20;15.77;;;10.60;;
35602;SDS011;21725;50.836;4.368;2022-12-07T19:49:47;18.75;;;11.63;;